<?xml version="1.0" encoding="UTF-8" standalone="no" ?>
<gpx xmlns="http://www.topografix.com/GPX/1/1" xmlns:xsi="http://www.w3.org/2001/XMLSchema-instance" xsi:schemaLocation="http://www.topografix.com/GPX/1/1 http://www.topografix.com/GPX/1/1/gpx.xsd" version="1.1" creator="VisuGPX - https://www.visugpx.com">
  <metadata>
    <name>VTT Venelles-BiMONT-Bibemus-Venelles</name>
    <desc><![CDATA[Sortie VTT du dimanche 17 septembre 2017]]></desc>
  </metadata>
  <trk>
    <name><![CDATA[Maps3D 2017-09-17 12-06am]]></name>
    <trkseg>
      <trkpt lat="43.59452" lon="5.47843">
        <ele>346.063843</ele>
        <time>2017-09-17T07:25:48Z</time>
      </trkpt>
      <trkpt lat="43.59447" lon="5.4786">
        <ele>346.299927</ele>
        <time>2017-09-17T07:26:22Z</time>
      </trkpt>
      <trkpt lat="43.59403" lon="5.47881">
        <ele>345.00293</ele>
        <time>2017-09-17T07:26:37Z</time>
      </trkpt>
      <trkpt lat="43.59333" lon="5.47901">
        <ele>342.622528</ele>
        <time>2017-09-17T07:26:53Z</time>
      </trkpt>
      <trkpt lat="43.59303" lon="5.48023">
        <ele>344.036682</ele>
        <time>2017-09-17T07:27:08Z</time>
      </trkpt>
      <trkpt lat="43.59275" lon="5.48135">
        <ele>343.443695</ele>
        <time>2017-09-17T07:27:24Z</time>
      </trkpt>
      <trkpt lat="43.59337" lon="5.48183">
        <ele>344.983185</ele>
        <time>2017-09-17T07:27:40Z</time>
      </trkpt>
      <trkpt lat="43.59381" lon="5.4826">
        <ele>345.632812</ele>
        <time>2017-09-17T07:27:55Z</time>
      </trkpt>
      <trkpt lat="43.59332" lon="5.48351">
        <ele>344.76236</ele>
        <time>2017-09-17T07:28:11Z</time>
      </trkpt>
      <trkpt lat="43.59263" lon="5.48426">
        <ele>344.970337</ele>
        <time>2017-09-17T07:28:26Z</time>
      </trkpt>
      <trkpt lat="43.5915" lon="5.48516">
        <ele>345.392334</ele>
        <time>2017-09-17T07:28:42Z</time>
      </trkpt>
      <trkpt lat="43.59082" lon="5.48635">
        <ele>344.210632</ele>
        <time>2017-09-17T07:28:57Z</time>
      </trkpt>
      <trkpt lat="43.59001" lon="5.48719">
        <ele>347.750305</ele>
        <time>2017-09-17T07:29:13Z</time>
      </trkpt>
      <trkpt lat="43.5892" lon="5.48759">
        <ele>346.062927</ele>
        <time>2017-09-17T07:29:28Z</time>
      </trkpt>
      <trkpt lat="43.58813" lon="5.48804">
        <ele>342.106567</ele>
        <time>2017-09-17T07:29:44Z</time>
      </trkpt>
      <trkpt lat="43.5874" lon="5.48854">
        <ele>341.652283</ele>
        <time>2017-09-17T07:29:59Z</time>
      </trkpt>
      <trkpt lat="43.58685" lon="5.48898">
        <ele>339.642151</ele>
        <time>2017-09-17T07:30:15Z</time>
      </trkpt>
      <trkpt lat="43.5862" lon="5.48935">
        <ele>338.781372</ele>
        <time>2017-09-17T07:30:31Z</time>
      </trkpt>
      <trkpt lat="43.58556" lon="5.49024">
        <ele>340.377686</ele>
        <time>2017-09-17T07:30:46Z</time>
      </trkpt>
      <trkpt lat="43.58492" lon="5.49113">
        <ele>342.146484</ele>
        <time>2017-09-17T07:31:01Z</time>
      </trkpt>
      <trkpt lat="43.58421" lon="5.49206">
        <ele>342.003113</ele>
        <time>2017-09-17T07:31:17Z</time>
      </trkpt>
      <trkpt lat="43.58351" lon="5.49278">
        <ele>341.224548</ele>
        <time>2017-09-17T07:31:32Z</time>
      </trkpt>
      <trkpt lat="43.58277" lon="5.49347">
        <ele>343.405792</ele>
        <time>2017-09-17T07:31:48Z</time>
      </trkpt>
      <trkpt lat="43.58201" lon="5.4942">
        <ele>343.525482</ele>
        <time>2017-09-17T07:32:04Z</time>
      </trkpt>
      <trkpt lat="43.58131" lon="5.49498">
        <ele>343.46637</ele>
        <time>2017-09-17T07:32:20Z</time>
      </trkpt>
      <trkpt lat="43.58062" lon="5.49583">
        <ele>346.753418</ele>
        <time>2017-09-17T07:32:36Z</time>
      </trkpt>
      <trkpt lat="43.57997" lon="5.49663">
        <ele>349.036987</ele>
        <time>2017-09-17T07:32:52Z</time>
      </trkpt>
      <trkpt lat="43.57947" lon="5.49742">
        <ele>348.398834</ele>
        <time>2017-09-17T07:33:07Z</time>
      </trkpt>
      <trkpt lat="43.57917" lon="5.49796">
        <ele>347.885529</ele>
        <time>2017-09-17T07:33:22Z</time>
      </trkpt>
      <trkpt lat="43.57864" lon="5.49869">
        <ele>349.151581</ele>
        <time>2017-09-17T07:33:38Z</time>
      </trkpt>
      <trkpt lat="43.57849" lon="5.49972">
        <ele>351.156769</ele>
        <time>2017-09-17T07:33:54Z</time>
      </trkpt>
      <trkpt lat="43.57787" lon="5.50049">
        <ele>352.838745</ele>
        <time>2017-09-17T07:34:10Z</time>
      </trkpt>
      <trkpt lat="43.57725" lon="5.50112">
        <ele>353.238861</ele>
        <time>2017-09-17T07:34:25Z</time>
      </trkpt>
      <trkpt lat="43.57664" lon="5.50167">
        <ele>353.068665</ele>
        <time>2017-09-17T07:34:40Z</time>
      </trkpt>
      <trkpt lat="43.57608" lon="5.50218">
        <ele>356.241272</ele>
        <time>2017-09-17T07:34:56Z</time>
      </trkpt>
      <trkpt lat="43.57553" lon="5.50269">
        <ele>359.165771</ele>
        <time>2017-09-17T07:35:11Z</time>
      </trkpt>
      <trkpt lat="43.57519" lon="5.50326">
        <ele>361.354126</ele>
        <time>2017-09-17T07:35:27Z</time>
      </trkpt>
      <trkpt lat="43.57497" lon="5.50394">
        <ele>364.17804</ele>
        <time>2017-09-17T07:35:42Z</time>
      </trkpt>
      <trkpt lat="43.57485" lon="5.5041">
        <ele>364.895081</ele>
        <time>2017-09-17T07:35:58Z</time>
      </trkpt>
      <trkpt lat="43.57472" lon="5.50405">
        <ele>364.754028</ele>
        <time>2017-09-17T07:38:12Z</time>
      </trkpt>
      <trkpt lat="43.57409" lon="5.50353">
        <ele>361.989624</ele>
        <time>2017-09-17T07:38:27Z</time>
      </trkpt>
      <trkpt lat="43.5734" lon="5.50289">
        <ele>363.921021</ele>
        <time>2017-09-17T07:38:43Z</time>
      </trkpt>
      <trkpt lat="43.57289" lon="5.50227">
        <ele>367.285767</ele>
        <time>2017-09-17T07:38:59Z</time>
      </trkpt>
      <trkpt lat="43.57228" lon="5.50158">
        <ele>367.674194</ele>
        <time>2017-09-17T07:39:14Z</time>
      </trkpt>
      <trkpt lat="43.57172" lon="5.50085">
        <ele>367.745361</ele>
        <time>2017-09-17T07:39:30Z</time>
      </trkpt>
      <trkpt lat="43.57142" lon="5.5003">
        <ele>374.699432</ele>
        <time>2017-09-17T07:39:45Z</time>
      </trkpt>
      <trkpt lat="43.57123" lon="5.49994">
        <ele>376.663177</ele>
        <time>2017-09-17T07:40:01Z</time>
      </trkpt>
      <trkpt lat="43.57109" lon="5.49954">
        <ele>377.084198</ele>
        <time>2017-09-17T07:40:16Z</time>
      </trkpt>
      <trkpt lat="43.57094" lon="5.49904">
        <ele>376.40918</ele>
        <time>2017-09-17T07:40:31Z</time>
      </trkpt>
      <trkpt lat="43.57085" lon="5.49847">
        <ele>376.03125</ele>
        <time>2017-09-17T07:40:47Z</time>
      </trkpt>
      <trkpt lat="43.57066" lon="5.49792">
        <ele>377.201202</ele>
        <time>2017-09-17T07:41:03Z</time>
      </trkpt>
      <trkpt lat="43.57032" lon="5.49741">
        <ele>379.523499</ele>
        <time>2017-09-17T07:41:19Z</time>
      </trkpt>
      <trkpt lat="43.57008" lon="5.49708">
        <ele>380.66272</ele>
        <time>2017-09-17T07:41:34Z</time>
      </trkpt>
      <trkpt lat="43.57001" lon="5.49659">
        <ele>381.350891</ele>
        <time>2017-09-17T07:41:50Z</time>
      </trkpt>
      <trkpt lat="43.57025" lon="5.49608">
        <ele>383.563324</ele>
        <time>2017-09-17T07:42:05Z</time>
      </trkpt>
      <trkpt lat="43.57012" lon="5.49582">
        <ele>385.099701</ele>
        <time>2017-09-17T07:42:21Z</time>
      </trkpt>
      <trkpt lat="43.56982" lon="5.4955">
        <ele>387.796112</ele>
        <time>2017-09-17T07:42:36Z</time>
      </trkpt>
      <trkpt lat="43.56948" lon="5.49514">
        <ele>390.20813</ele>
        <time>2017-09-17T07:42:52Z</time>
      </trkpt>
      <trkpt lat="43.56934" lon="5.49472">
        <ele>393.119415</ele>
        <time>2017-09-17T07:43:07Z</time>
      </trkpt>
      <trkpt lat="43.56947" lon="5.49424">
        <ele>397.360901</ele>
        <time>2017-09-17T07:43:22Z</time>
      </trkpt>
      <trkpt lat="43.56944" lon="5.49384">
        <ele>401.090088</ele>
        <time>2017-09-17T07:43:38Z</time>
      </trkpt>
      <trkpt lat="43.56928" lon="5.49347">
        <ele>404.224792</ele>
        <time>2017-09-17T07:43:53Z</time>
      </trkpt>
      <trkpt lat="43.56925" lon="5.49303">
        <ele>407.232727</ele>
        <time>2017-09-17T07:44:09Z</time>
      </trkpt>
      <trkpt lat="43.56901" lon="5.49279">
        <ele>409.216614</ele>
        <time>2017-09-17T07:44:25Z</time>
      </trkpt>
      <trkpt lat="43.56868" lon="5.49251">
        <ele>412.911682</ele>
        <time>2017-09-17T07:44:40Z</time>
      </trkpt>
      <trkpt lat="43.56846" lon="5.49214">
        <ele>416.442749</ele>
        <time>2017-09-17T07:44:56Z</time>
      </trkpt>
      <trkpt lat="43.56827" lon="5.49208">
        <ele>417.713257</ele>
        <time>2017-09-17T07:45:12Z</time>
      </trkpt>
      <trkpt lat="43.56802" lon="5.49212">
        <ele>418.363159</ele>
        <time>2017-09-17T07:45:28Z</time>
      </trkpt>
      <trkpt lat="43.56768" lon="5.49231">
        <ele>417.64566</ele>
        <time>2017-09-17T07:45:44Z</time>
      </trkpt>
      <trkpt lat="43.56719" lon="5.49259">
        <ele>413.023438</ele>
        <time>2017-09-17T07:45:59Z</time>
      </trkpt>
      <trkpt lat="43.56673" lon="5.49352">
        <ele>407.754395</ele>
        <time>2017-09-17T07:46:14Z</time>
      </trkpt>
      <trkpt lat="43.56631" lon="5.49364">
        <ele>410.204407</ele>
        <time>2017-09-17T07:46:29Z</time>
      </trkpt>
      <trkpt lat="43.56613" lon="5.4941">
        <ele>412.303528</ele>
        <time>2017-09-17T07:46:45Z</time>
      </trkpt>
      <trkpt lat="43.56594" lon="5.49458">
        <ele>416.397614</ele>
        <time>2017-09-17T07:47:00Z</time>
      </trkpt>
      <trkpt lat="43.5657" lon="5.49503">
        <ele>421.405212</ele>
        <time>2017-09-17T07:47:16Z</time>
      </trkpt>
      <trkpt lat="43.56557" lon="5.49539">
        <ele>424.320251</ele>
        <time>2017-09-17T07:47:31Z</time>
      </trkpt>
      <trkpt lat="43.56533" lon="5.49568">
        <ele>426.64093</ele>
        <time>2017-09-17T07:47:47Z</time>
      </trkpt>
      <trkpt lat="43.56506" lon="5.49551">
        <ele>429.410645</ele>
        <time>2017-09-17T07:48:02Z</time>
      </trkpt>
      <trkpt lat="43.56472" lon="5.49553">
        <ele>430.625336</ele>
        <time>2017-09-17T07:48:17Z</time>
      </trkpt>
      <trkpt lat="43.56441" lon="5.49569">
        <ele>430.423889</ele>
        <time>2017-09-17T07:48:33Z</time>
      </trkpt>
      <trkpt lat="43.56372" lon="5.49591">
        <ele>430.032196</ele>
        <time>2017-09-17T07:48:49Z</time>
      </trkpt>
      <trkpt lat="43.56307" lon="5.49609">
        <ele>427.446838</ele>
        <time>2017-09-17T07:49:05Z</time>
      </trkpt>
      <trkpt lat="43.56274" lon="5.49679">
        <ele>428.284058</ele>
        <time>2017-09-17T07:49:20Z</time>
      </trkpt>
      <trkpt lat="43.56247" lon="5.49747">
        <ele>429.461609</ele>
        <time>2017-09-17T07:49:36Z</time>
      </trkpt>
      <trkpt lat="43.56208" lon="5.49825">
        <ele>428.475403</ele>
        <time>2017-09-17T07:49:52Z</time>
      </trkpt>
      <trkpt lat="43.56143" lon="5.4987">
        <ele>428.573425</ele>
        <time>2017-09-17T07:50:07Z</time>
      </trkpt>
      <trkpt lat="43.56087" lon="5.49924">
        <ele>429.932281</ele>
        <time>2017-09-17T07:50:23Z</time>
      </trkpt>
      <trkpt lat="43.56024" lon="5.49931">
        <ele>430.834534</ele>
        <time>2017-09-17T07:50:38Z</time>
      </trkpt>
      <trkpt lat="43.55959" lon="5.49936">
        <ele>430.977356</ele>
        <time>2017-09-17T07:50:54Z</time>
      </trkpt>
      <trkpt lat="43.55882" lon="5.49905">
        <ele>428.595825</ele>
        <time>2017-09-17T07:51:10Z</time>
      </trkpt>
      <trkpt lat="43.55805" lon="5.49929">
        <ele>426.667786</ele>
        <time>2017-09-17T07:51:25Z</time>
      </trkpt>
      <trkpt lat="43.5574" lon="5.49989">
        <ele>424.901337</ele>
        <time>2017-09-17T07:51:41Z</time>
      </trkpt>
      <trkpt lat="43.55691" lon="5.50067">
        <ele>423.826141</ele>
        <time>2017-09-17T07:51:57Z</time>
      </trkpt>
      <trkpt lat="43.55659" lon="5.50157">
        <ele>423.79837</ele>
        <time>2017-09-17T07:52:13Z</time>
      </trkpt>
      <trkpt lat="43.55633" lon="5.50234">
        <ele>424.736206</ele>
        <time>2017-09-17T07:52:28Z</time>
      </trkpt>
      <trkpt lat="43.55641" lon="5.50317">
        <ele>425.556122</ele>
        <time>2017-09-17T07:52:44Z</time>
      </trkpt>
      <trkpt lat="43.55607" lon="5.50394">
        <ele>426.002136</ele>
        <time>2017-09-17T07:52:59Z</time>
      </trkpt>
      <trkpt lat="43.55565" lon="5.5047">
        <ele>426.90625</ele>
        <time>2017-09-17T07:53:14Z</time>
      </trkpt>
      <trkpt lat="43.55486" lon="5.50504">
        <ele>425.573853</ele>
        <time>2017-09-17T07:53:30Z</time>
      </trkpt>
      <trkpt lat="43.55435" lon="5.50568">
        <ele>425.30249</ele>
        <time>2017-09-17T07:53:45Z</time>
      </trkpt>
      <trkpt lat="43.55407" lon="5.50625">
        <ele>426.548767</ele>
        <time>2017-09-17T07:54:00Z</time>
      </trkpt>
      <trkpt lat="43.55397" lon="5.5069">
        <ele>428.054016</ele>
        <time>2017-09-17T07:54:16Z</time>
      </trkpt>
      <trkpt lat="43.55368" lon="5.5076">
        <ele>428.610535</ele>
        <time>2017-09-17T07:54:32Z</time>
      </trkpt>
      <trkpt lat="43.55346" lon="5.50837">
        <ele>430.013306</ele>
        <time>2017-09-17T07:54:48Z</time>
      </trkpt>
      <trkpt lat="43.55336" lon="5.50908">
        <ele>430.04718</ele>
        <time>2017-09-17T07:55:03Z</time>
      </trkpt>
      <trkpt lat="43.5534" lon="5.50973">
        <ele>433.440094</ele>
        <time>2017-09-17T07:55:18Z</time>
      </trkpt>
      <trkpt lat="43.55353" lon="5.51032">
        <ele>435.387817</ele>
        <time>2017-09-17T07:55:33Z</time>
      </trkpt>
      <trkpt lat="43.5535" lon="5.51083">
        <ele>435.999817</ele>
        <time>2017-09-17T07:55:49Z</time>
      </trkpt>
      <trkpt lat="43.55343" lon="5.51143">
        <ele>436.632141</ele>
        <time>2017-09-17T07:56:04Z</time>
      </trkpt>
      <trkpt lat="43.55346" lon="5.5121">
        <ele>437.363586</ele>
        <time>2017-09-17T07:56:19Z</time>
      </trkpt>
      <trkpt lat="43.55362" lon="5.51288">
        <ele>437.50531</ele>
        <time>2017-09-17T07:56:35Z</time>
      </trkpt>
      <trkpt lat="43.55372" lon="5.51373">
        <ele>437.29248</ele>
        <time>2017-09-17T07:56:51Z</time>
      </trkpt>
      <trkpt lat="43.55385" lon="5.51447">
        <ele>438.098694</ele>
        <time>2017-09-17T07:57:06Z</time>
      </trkpt>
      <trkpt lat="43.55399" lon="5.5154">
        <ele>440.437378</ele>
        <time>2017-09-17T07:57:21Z</time>
      </trkpt>
      <trkpt lat="43.5538" lon="5.51617">
        <ele>441.377441</ele>
        <time>2017-09-17T07:57:36Z</time>
      </trkpt>
      <trkpt lat="43.55347" lon="5.51689">
        <ele>440.81134</ele>
        <time>2017-09-17T07:57:52Z</time>
      </trkpt>
      <trkpt lat="43.5531" lon="5.5174">
        <ele>437.045563</ele>
        <time>2017-09-17T07:58:07Z</time>
      </trkpt>
      <trkpt lat="43.55293" lon="5.518">
        <ele>435.760071</ele>
        <time>2017-09-17T07:58:23Z</time>
      </trkpt>
      <trkpt lat="43.55269" lon="5.51855">
        <ele>434.500336</ele>
        <time>2017-09-17T07:58:38Z</time>
      </trkpt>
      <trkpt lat="43.55246" lon="5.51918">
        <ele>434.600403</ele>
        <time>2017-09-17T07:58:53Z</time>
      </trkpt>
      <trkpt lat="43.55223" lon="5.51974">
        <ele>430.83313</ele>
        <time>2017-09-17T07:59:08Z</time>
      </trkpt>
      <trkpt lat="43.55202" lon="5.5203">
        <ele>426.818634</ele>
        <time>2017-09-17T07:59:24Z</time>
      </trkpt>
      <trkpt lat="43.55161" lon="5.52056">
        <ele>422.216431</ele>
        <time>2017-09-17T07:59:40Z</time>
      </trkpt>
      <trkpt lat="43.55108" lon="5.52119">
        <ele>417.087341</ele>
        <time>2017-09-17T07:59:56Z</time>
      </trkpt>
      <trkpt lat="43.55053" lon="5.52134">
        <ele>412.241211</ele>
        <time>2017-09-17T08:00:11Z</time>
      </trkpt>
      <trkpt lat="43.55066" lon="5.52221">
        <ele>413.141602</ele>
        <time>2017-09-17T08:00:26Z</time>
      </trkpt>
      <trkpt lat="43.55121" lon="5.52301">
        <ele>413.976288</ele>
        <time>2017-09-17T08:00:42Z</time>
      </trkpt>
      <trkpt lat="43.55134" lon="5.52345">
        <ele>414.115326</ele>
        <time>2017-09-17T08:00:57Z</time>
      </trkpt>
      <trkpt lat="43.55126" lon="5.52395">
        <ele>411.81012</ele>
        <time>2017-09-17T08:01:12Z</time>
      </trkpt>
      <trkpt lat="43.55082" lon="5.52368">
        <ele>407.27832</ele>
        <time>2017-09-17T08:01:28Z</time>
      </trkpt>
      <trkpt lat="43.54973" lon="5.52361">
        <ele>398.170929</ele>
        <time>2017-09-17T08:01:44Z</time>
      </trkpt>
      <trkpt lat="43.54869" lon="5.52407">
        <ele>391.162109</ele>
        <time>2017-09-17T08:02:00Z</time>
      </trkpt>
      <trkpt lat="43.54834" lon="5.52421">
        <ele>391.052277</ele>
        <time>2017-09-17T08:02:15Z</time>
      </trkpt>
      <trkpt lat="43.54824" lon="5.52407">
        <ele>392.584503</ele>
        <time>2017-09-17T08:02:45Z</time>
      </trkpt>
      <trkpt lat="43.54813" lon="5.52349">
        <ele>394.670013</ele>
        <time>2017-09-17T08:03:01Z</time>
      </trkpt>
      <trkpt lat="43.54788" lon="5.52333">
        <ele>397.93689</ele>
        <time>2017-09-17T08:03:17Z</time>
      </trkpt>
      <trkpt lat="43.54777" lon="5.52361">
        <ele>399.721405</ele>
        <time>2017-09-17T08:03:33Z</time>
      </trkpt>
      <trkpt lat="43.54795" lon="5.52406">
        <ele>397.341003</ele>
        <time>2017-09-17T08:03:49Z</time>
      </trkpt>
      <trkpt lat="43.54807" lon="5.52419">
        <ele>395.538757</ele>
        <time>2017-09-17T08:04:47Z</time>
      </trkpt>
      <trkpt lat="43.54816" lon="5.52433">
        <ele>394.348206</ele>
        <time>2017-09-17T08:05:03Z</time>
      </trkpt>
      <trkpt lat="43.54821" lon="5.52455">
        <ele>393.839935</ele>
        <time>2017-09-17T08:05:18Z</time>
      </trkpt>
      <trkpt lat="43.54822" lon="5.52486">
        <ele>394.264893</ele>
        <time>2017-09-17T08:05:34Z</time>
      </trkpt>
      <trkpt lat="43.5483" lon="5.52514">
        <ele>393.240662</ele>
        <time>2017-09-17T08:05:49Z</time>
      </trkpt>
      <trkpt lat="43.54838" lon="5.52545">
        <ele>393.065674</ele>
        <time>2017-09-17T08:06:04Z</time>
      </trkpt>
      <trkpt lat="43.54848" lon="5.52596">
        <ele>392.561005</ele>
        <time>2017-09-17T08:06:20Z</time>
      </trkpt>
      <trkpt lat="43.54859" lon="5.52659">
        <ele>389.379944</ele>
        <time>2017-09-17T08:06:35Z</time>
      </trkpt>
      <trkpt lat="43.54864" lon="5.52697">
        <ele>388.522064</ele>
        <time>2017-09-17T08:06:51Z</time>
      </trkpt>
      <trkpt lat="43.54867" lon="5.52741">
        <ele>388.308838</ele>
        <time>2017-09-17T08:07:06Z</time>
      </trkpt>
      <trkpt lat="43.54871" lon="5.52789">
        <ele>388.712708</ele>
        <time>2017-09-17T08:07:21Z</time>
      </trkpt>
      <trkpt lat="43.54894" lon="5.52816">
        <ele>382.882904</ele>
        <time>2017-09-17T08:07:37Z</time>
      </trkpt>
      <trkpt lat="43.54903" lon="5.52866">
        <ele>381.50946</ele>
        <time>2017-09-17T08:07:52Z</time>
      </trkpt>
      <trkpt lat="43.54905" lon="5.52919">
        <ele>382.998932</ele>
        <time>2017-09-17T08:08:08Z</time>
      </trkpt>
      <trkpt lat="43.54906" lon="5.52971">
        <ele>383.511719</ele>
        <time>2017-09-17T08:08:24Z</time>
      </trkpt>
      <trkpt lat="43.54915" lon="5.53012">
        <ele>381.447174</ele>
        <time>2017-09-17T08:08:39Z</time>
      </trkpt>
      <trkpt lat="43.54933" lon="5.53068">
        <ele>381.077942</ele>
        <time>2017-09-17T08:08:55Z</time>
      </trkpt>
      <trkpt lat="43.54928" lon="5.53119">
        <ele>381.916504</ele>
        <time>2017-09-17T08:09:11Z</time>
      </trkpt>
      <trkpt lat="43.54928" lon="5.53144">
        <ele>381.17688</ele>
        <time>2017-09-17T08:09:27Z</time>
      </trkpt>
      <trkpt lat="43.54906" lon="5.5319">
        <ele>382.729919</ele>
        <time>2017-09-17T08:09:42Z</time>
      </trkpt>
      <trkpt lat="43.54888" lon="5.5323">
        <ele>383.105103</ele>
        <time>2017-09-17T08:09:58Z</time>
      </trkpt>
      <trkpt lat="43.54874" lon="5.53252">
        <ele>384.695557</ele>
        <time>2017-09-17T08:10:14Z</time>
      </trkpt>
      <trkpt lat="43.54857" lon="5.53297">
        <ele>386.616516</ele>
        <time>2017-09-17T08:10:29Z</time>
      </trkpt>
      <trkpt lat="43.54853" lon="5.53332">
        <ele>384.505005</ele>
        <time>2017-09-17T08:10:45Z</time>
      </trkpt>
      <trkpt lat="43.54838" lon="5.53362">
        <ele>385.030518</ele>
        <time>2017-09-17T08:11:01Z</time>
      </trkpt>
      <trkpt lat="43.54816" lon="5.53386">
        <ele>385.848022</ele>
        <time>2017-09-17T08:11:17Z</time>
      </trkpt>
      <trkpt lat="43.54811" lon="5.5341">
        <ele>383.007324</ele>
        <time>2017-09-17T08:11:32Z</time>
      </trkpt>
      <trkpt lat="43.54777" lon="5.53442">
        <ele>384.956238</ele>
        <time>2017-09-17T08:11:48Z</time>
      </trkpt>
      <trkpt lat="43.54758" lon="5.53464">
        <ele>385.750488</ele>
        <time>2017-09-17T08:12:04Z</time>
      </trkpt>
      <trkpt lat="43.54715" lon="5.53478">
        <ele>386.333221</ele>
        <time>2017-09-17T08:12:20Z</time>
      </trkpt>
      <trkpt lat="43.54693" lon="5.53468">
        <ele>387.983185</ele>
        <time>2017-09-17T08:12:36Z</time>
      </trkpt>
      <trkpt lat="43.54678" lon="5.53466">
        <ele>388.516602</ele>
        <time>2017-09-17T08:14:31Z</time>
      </trkpt>
      <trkpt lat="43.54638" lon="5.53467">
        <ele>386.778809</ele>
        <time>2017-09-17T08:14:46Z</time>
      </trkpt>
      <trkpt lat="43.5457" lon="5.53437">
        <ele>386.306885</ele>
        <time>2017-09-17T08:15:02Z</time>
      </trkpt>
      <trkpt lat="43.54501" lon="5.53422">
        <ele>385.425598</ele>
        <time>2017-09-17T08:15:17Z</time>
      </trkpt>
      <trkpt lat="43.5443" lon="5.53364">
        <ele>383.06665</ele>
        <time>2017-09-17T08:15:33Z</time>
      </trkpt>
      <trkpt lat="43.54361" lon="5.53306">
        <ele>380.434448</ele>
        <time>2017-09-17T08:15:49Z</time>
      </trkpt>
      <trkpt lat="43.54279" lon="5.53295">
        <ele>371.769165</ele>
        <time>2017-09-17T08:16:05Z</time>
      </trkpt>
      <trkpt lat="43.54207" lon="5.53298">
        <ele>360.859741</ele>
        <time>2017-09-17T08:16:21Z</time>
      </trkpt>
      <trkpt lat="43.54177" lon="5.53301">
        <ele>355.665375</ele>
        <time>2017-09-17T08:16:36Z</time>
      </trkpt>
      <trkpt lat="43.54172" lon="5.53351">
        <ele>353.340973</ele>
        <time>2017-09-17T08:16:52Z</time>
      </trkpt>
      <trkpt lat="43.54156" lon="5.53406">
        <ele>349.266296</ele>
        <time>2017-09-17T08:17:07Z</time>
      </trkpt>
      <trkpt lat="43.54143" lon="5.53468">
        <ele>341.913147</ele>
        <time>2017-09-17T08:17:22Z</time>
      </trkpt>
      <trkpt lat="43.54147" lon="5.5357">
        <ele>336.171082</ele>
        <time>2017-09-17T08:17:38Z</time>
      </trkpt>
      <trkpt lat="43.5412" lon="5.53617">
        <ele>327.20813</ele>
        <time>2017-09-17T08:17:54Z</time>
      </trkpt>
      <trkpt lat="43.54108" lon="5.53624">
        <ele>324.995758</ele>
        <time>2017-09-17T08:20:35Z</time>
      </trkpt>
      <trkpt lat="43.54121" lon="5.53618">
        <ele>327.270447</ele>
        <time>2017-09-17T08:28:02Z</time>
      </trkpt>
      <trkpt lat="43.54131" lon="5.53599">
        <ele>329.654297</ele>
        <time>2017-09-17T08:28:18Z</time>
      </trkpt>
      <trkpt lat="43.54157" lon="5.53556">
        <ele>340.82782</ele>
        <time>2017-09-17T08:28:33Z</time>
      </trkpt>
      <trkpt lat="43.54148" lon="5.53488">
        <ele>343.507477</ele>
        <time>2017-09-17T08:28:49Z</time>
      </trkpt>
      <trkpt lat="43.54155" lon="5.53424">
        <ele>348.870514</ele>
        <time>2017-09-17T08:29:05Z</time>
      </trkpt>
      <trkpt lat="43.54169" lon="5.53356">
        <ele>353.124512</ele>
        <time>2017-09-17T08:29:21Z</time>
      </trkpt>
      <trkpt lat="43.54167" lon="5.53295">
        <ele>354.433472</ele>
        <time>2017-09-17T08:29:36Z</time>
      </trkpt>
      <trkpt lat="43.54132" lon="5.53223">
        <ele>348.228882</ele>
        <time>2017-09-17T08:29:52Z</time>
      </trkpt>
      <trkpt lat="43.54091" lon="5.53141">
        <ele>351.693237</ele>
        <time>2017-09-17T08:30:07Z</time>
      </trkpt>
      <trkpt lat="43.54113" lon="5.53052">
        <ele>353.73233</ele>
        <time>2017-09-17T08:30:23Z</time>
      </trkpt>
      <trkpt lat="43.5413" lon="5.52979">
        <ele>355.060181</ele>
        <time>2017-09-17T08:30:39Z</time>
      </trkpt>
      <trkpt lat="43.54083" lon="5.52916">
        <ele>352.00174</ele>
        <time>2017-09-17T08:30:54Z</time>
      </trkpt>
      <trkpt lat="43.54026" lon="5.5284">
        <ele>349.46463</ele>
        <time>2017-09-17T08:31:10Z</time>
      </trkpt>
      <trkpt lat="43.53991" lon="5.52769">
        <ele>347.410217</ele>
        <time>2017-09-17T08:31:26Z</time>
      </trkpt>
      <trkpt lat="43.53976" lon="5.52678">
        <ele>338.573303</ele>
        <time>2017-09-17T08:31:42Z</time>
      </trkpt>
      <trkpt lat="43.5396" lon="5.52592">
        <ele>336.470947</ele>
        <time>2017-09-17T08:31:57Z</time>
      </trkpt>
      <trkpt lat="43.53956" lon="5.52527">
        <ele>344.269531</ele>
        <time>2017-09-17T08:32:12Z</time>
      </trkpt>
      <trkpt lat="43.53955" lon="5.52506">
        <ele>347.27356</ele>
        <time>2017-09-17T08:32:28Z</time>
      </trkpt>
      <trkpt lat="43.53946" lon="5.52491">
        <ele>347.034698</ele>
        <time>2017-09-17T08:33:29Z</time>
      </trkpt>
      <trkpt lat="43.53925" lon="5.52478">
        <ele>344.132782</ele>
        <time>2017-09-17T08:33:44Z</time>
      </trkpt>
      <trkpt lat="43.53911" lon="5.52476">
        <ele>340.440308</ele>
        <time>2017-09-17T08:37:28Z</time>
      </trkpt>
      <trkpt lat="43.53897" lon="5.52442">
        <ele>339.485199</ele>
        <time>2017-09-17T08:37:43Z</time>
      </trkpt>
      <trkpt lat="43.53894" lon="5.52366">
        <ele>341.916199</ele>
        <time>2017-09-17T08:37:59Z</time>
      </trkpt>
      <trkpt lat="43.53866" lon="5.52281">
        <ele>338.739502</ele>
        <time>2017-09-17T08:38:15Z</time>
      </trkpt>
      <trkpt lat="43.53817" lon="5.52231">
        <ele>332.44693</ele>
        <time>2017-09-17T08:38:31Z</time>
      </trkpt>
      <trkpt lat="43.538" lon="5.52167">
        <ele>330.118805</ele>
        <time>2017-09-17T08:38:46Z</time>
      </trkpt>
      <trkpt lat="43.53838" lon="5.52155">
        <ele>337.251923</ele>
        <time>2017-09-17T08:39:01Z</time>
      </trkpt>
      <trkpt lat="43.53883" lon="5.52176">
        <ele>340.169128</ele>
        <time>2017-09-17T08:39:17Z</time>
      </trkpt>
      <trkpt lat="43.53926" lon="5.52162">
        <ele>340.575897</ele>
        <time>2017-09-17T08:39:32Z</time>
      </trkpt>
      <trkpt lat="43.53954" lon="5.5213">
        <ele>341.72403</ele>
        <time>2017-09-17T08:39:47Z</time>
      </trkpt>
      <trkpt lat="43.53975" lon="5.52102">
        <ele>343.237915</ele>
        <time>2017-09-17T08:40:02Z</time>
      </trkpt>
      <trkpt lat="43.53959" lon="5.52074">
        <ele>340.731689</ele>
        <time>2017-09-17T08:40:17Z</time>
      </trkpt>
      <trkpt lat="43.53936" lon="5.52017">
        <ele>339.234741</ele>
        <time>2017-09-17T08:40:33Z</time>
      </trkpt>
      <trkpt lat="43.53985" lon="5.51969">
        <ele>340.761383</ele>
        <time>2017-09-17T08:40:48Z</time>
      </trkpt>
      <trkpt lat="43.54041" lon="5.51924">
        <ele>340.283081</ele>
        <time>2017-09-17T08:41:04Z</time>
      </trkpt>
      <trkpt lat="43.54047" lon="5.51875">
        <ele>339.664978</ele>
        <time>2017-09-17T08:41:19Z</time>
      </trkpt>
      <trkpt lat="43.54005" lon="5.5185">
        <ele>336.365601</ele>
        <time>2017-09-17T08:41:34Z</time>
      </trkpt>
      <trkpt lat="43.53969" lon="5.51825">
        <ele>332.270447</ele>
        <time>2017-09-17T08:41:50Z</time>
      </trkpt>
      <trkpt lat="43.5394" lon="5.5175">
        <ele>333.227844</ele>
        <time>2017-09-17T08:42:05Z</time>
      </trkpt>
      <trkpt lat="43.5391" lon="5.51713">
        <ele>335.821716</ele>
        <time>2017-09-17T08:42:21Z</time>
      </trkpt>
      <trkpt lat="43.53866" lon="5.5169">
        <ele>333.834747</ele>
        <time>2017-09-17T08:42:37Z</time>
      </trkpt>
      <trkpt lat="43.53822" lon="5.51672">
        <ele>330.326508</ele>
        <time>2017-09-17T08:42:52Z</time>
      </trkpt>
      <trkpt lat="43.53799" lon="5.51623">
        <ele>330.85379</ele>
        <time>2017-09-17T08:43:08Z</time>
      </trkpt>
      <trkpt lat="43.5376" lon="5.51554">
        <ele>330.957672</ele>
        <time>2017-09-17T08:43:23Z</time>
      </trkpt>
      <trkpt lat="43.53719" lon="5.51478">
        <ele>327.822662</ele>
        <time>2017-09-17T08:43:38Z</time>
      </trkpt>
      <trkpt lat="43.53742" lon="5.5141">
        <ele>335.149536</ele>
        <time>2017-09-17T08:43:54Z</time>
      </trkpt>
      <trkpt lat="43.53697" lon="5.51361">
        <ele>325.431122</ele>
        <time>2017-09-17T08:44:10Z</time>
      </trkpt>
      <trkpt lat="43.53684" lon="5.51266">
        <ele>323.491913</ele>
        <time>2017-09-17T08:44:25Z</time>
      </trkpt>
      <trkpt lat="43.53719" lon="5.51193">
        <ele>328.522064</ele>
        <time>2017-09-17T08:44:40Z</time>
      </trkpt>
      <trkpt lat="43.53727" lon="5.5112">
        <ele>330.933075</ele>
        <time>2017-09-17T08:44:56Z</time>
      </trkpt>
      <trkpt lat="43.53726" lon="5.51091">
        <ele>332.147675</ele>
        <time>2017-09-17T08:45:11Z</time>
      </trkpt>
      <trkpt lat="43.53722" lon="5.51068">
        <ele>332.998169</ele>
        <time>2017-09-17T08:45:27Z</time>
      </trkpt>
      <trkpt lat="43.53735" lon="5.51071">
        <ele>335.530518</ele>
        <time>2017-09-17T08:45:46Z</time>
      </trkpt>
      <trkpt lat="43.53721" lon="5.51062">
        <ele>333.447205</ele>
        <time>2017-09-17T08:46:22Z</time>
      </trkpt>
      <trkpt lat="43.53727" lon="5.51045">
        <ele>336.06842</ele>
        <time>2017-09-17T08:46:51Z</time>
      </trkpt>
      <trkpt lat="43.53717" lon="5.51029">
        <ele>335.992096</ele>
        <time>2017-09-17T08:47:06Z</time>
      </trkpt>
      <trkpt lat="43.5371" lon="5.51013">
        <ele>336.657349</ele>
        <time>2017-09-17T08:47:24Z</time>
      </trkpt>
      <trkpt lat="43.53703" lon="5.50984">
        <ele>337.856079</ele>
        <time>2017-09-17T08:47:40Z</time>
      </trkpt>
      <trkpt lat="43.53708" lon="5.50915">
        <ele>339.478516</ele>
        <time>2017-09-17T08:47:55Z</time>
      </trkpt>
      <trkpt lat="43.53714" lon="5.50835">
        <ele>339.552521</ele>
        <time>2017-09-17T08:48:10Z</time>
      </trkpt>
      <trkpt lat="43.53665" lon="5.50739">
        <ele>338.426208</ele>
        <time>2017-09-17T08:48:26Z</time>
      </trkpt>
      <trkpt lat="43.53614" lon="5.50646">
        <ele>337.146484</ele>
        <time>2017-09-17T08:48:42Z</time>
      </trkpt>
      <trkpt lat="43.53539" lon="5.50568">
        <ele>333.931793</ele>
        <time>2017-09-17T08:48:58Z</time>
      </trkpt>
      <trkpt lat="43.53509" lon="5.50566">
        <ele>329.883057</ele>
        <time>2017-09-17T08:49:14Z</time>
      </trkpt>
      <trkpt lat="43.53499" lon="5.5058">
        <ele>326.465881</ele>
        <time>2017-09-17T08:49:47Z</time>
      </trkpt>
      <trkpt lat="43.535" lon="5.50561">
        <ele>329.521515</ele>
        <time>2017-09-17T08:54:12Z</time>
      </trkpt>
      <trkpt lat="43.53505" lon="5.50541">
        <ele>333.186401</ele>
        <time>2017-09-17T08:56:08Z</time>
      </trkpt>
      <trkpt lat="43.5349" lon="5.50492">
        <ele>338.889099</ele>
        <time>2017-09-17T08:56:24Z</time>
      </trkpt>
      <trkpt lat="43.53468" lon="5.50446">
        <ele>340.363098</ele>
        <time>2017-09-17T08:56:40Z</time>
      </trkpt>
      <trkpt lat="43.53448" lon="5.50368">
        <ele>343.860504</ele>
        <time>2017-09-17T08:56:55Z</time>
      </trkpt>
      <trkpt lat="43.53383" lon="5.50339">
        <ele>343.86145</ele>
        <time>2017-09-17T08:57:11Z</time>
      </trkpt>
      <trkpt lat="43.53311" lon="5.50387">
        <ele>343.436523</ele>
        <time>2017-09-17T08:57:26Z</time>
      </trkpt>
      <trkpt lat="43.53248" lon="5.50374">
        <ele>346.585297</ele>
        <time>2017-09-17T08:57:41Z</time>
      </trkpt>
      <trkpt lat="43.53227" lon="5.50295">
        <ele>348.803192</ele>
        <time>2017-09-17T08:57:56Z</time>
      </trkpt>
      <trkpt lat="43.53208" lon="5.50226">
        <ele>351.233215</ele>
        <time>2017-09-17T08:58:11Z</time>
      </trkpt>
      <trkpt lat="43.53167" lon="5.5014">
        <ele>351.381012</ele>
        <time>2017-09-17T08:58:27Z</time>
      </trkpt>
      <trkpt lat="43.53126" lon="5.5005">
        <ele>346.84436</ele>
        <time>2017-09-17T08:58:42Z</time>
      </trkpt>
      <trkpt lat="43.53175" lon="5.49987">
        <ele>347.763062</ele>
        <time>2017-09-17T08:58:57Z</time>
      </trkpt>
      <trkpt lat="43.53236" lon="5.49909">
        <ele>345.642456</ele>
        <time>2017-09-17T08:59:13Z</time>
      </trkpt>
      <trkpt lat="43.53266" lon="5.49778">
        <ele>342.062714</ele>
        <time>2017-09-17T08:59:29Z</time>
      </trkpt>
      <trkpt lat="43.53315" lon="5.49661">
        <ele>338.385986</ele>
        <time>2017-09-17T08:59:45Z</time>
      </trkpt>
      <trkpt lat="43.53385" lon="5.4958">
        <ele>339.993927</ele>
        <time>2017-09-17T09:00:00Z</time>
      </trkpt>
      <trkpt lat="43.53452" lon="5.49555">
        <ele>341.153625</ele>
        <time>2017-09-17T09:00:15Z</time>
      </trkpt>
      <trkpt lat="43.5353" lon="5.49619">
        <ele>346.380005</ele>
        <time>2017-09-17T09:00:31Z</time>
      </trkpt>
      <trkpt lat="43.53577" lon="5.49641">
        <ele>350.45755</ele>
        <time>2017-09-17T09:00:47Z</time>
      </trkpt>
      <trkpt lat="43.53605" lon="5.4969">
        <ele>352.026123</ele>
        <time>2017-09-17T09:01:02Z</time>
      </trkpt>
      <trkpt lat="43.53652" lon="5.49681">
        <ele>354.294922</ele>
        <time>2017-09-17T09:01:17Z</time>
      </trkpt>
      <trkpt lat="43.53698" lon="5.4971">
        <ele>356.122375</ele>
        <time>2017-09-17T09:01:33Z</time>
      </trkpt>
      <trkpt lat="43.53693" lon="5.49768">
        <ele>356.32547</ele>
        <time>2017-09-17T09:01:48Z</time>
      </trkpt>
      <trkpt lat="43.53695" lon="5.49825">
        <ele>356.637024</ele>
        <time>2017-09-17T09:02:03Z</time>
      </trkpt>
      <trkpt lat="43.537" lon="5.4989">
        <ele>357.797638</ele>
        <time>2017-09-17T09:02:18Z</time>
      </trkpt>
      <trkpt lat="43.53681" lon="5.49979">
        <ele>357.874542</ele>
        <time>2017-09-17T09:02:34Z</time>
      </trkpt>
      <trkpt lat="43.53655" lon="5.50094">
        <ele>356.112396</ele>
        <time>2017-09-17T09:02:50Z</time>
      </trkpt>
      <trkpt lat="43.53658" lon="5.5019">
        <ele>357.172791</ele>
        <time>2017-09-17T09:03:05Z</time>
      </trkpt>
      <trkpt lat="43.53729" lon="5.50217">
        <ele>359.392029</ele>
        <time>2017-09-17T09:03:20Z</time>
      </trkpt>
      <trkpt lat="43.53789" lon="5.50221">
        <ele>360.305481</ele>
        <time>2017-09-17T09:03:36Z</time>
      </trkpt>
      <trkpt lat="43.5385" lon="5.50233">
        <ele>360.716888</ele>
        <time>2017-09-17T09:03:52Z</time>
      </trkpt>
      <trkpt lat="43.53891" lon="5.50186">
        <ele>359.167297</ele>
        <time>2017-09-17T09:04:07Z</time>
      </trkpt>
      <trkpt lat="43.53953" lon="5.50203">
        <ele>357.047668</ele>
        <time>2017-09-17T09:04:23Z</time>
      </trkpt>
      <trkpt lat="43.54015" lon="5.50247">
        <ele>355.587738</ele>
        <time>2017-09-17T09:04:38Z</time>
      </trkpt>
      <trkpt lat="43.54052" lon="5.50323">
        <ele>357.136444</ele>
        <time>2017-09-17T09:04:54Z</time>
      </trkpt>
      <trkpt lat="43.54086" lon="5.50346">
        <ele>357.600647</ele>
        <time>2017-09-17T09:05:10Z</time>
      </trkpt>
      <trkpt lat="43.54109" lon="5.50415">
        <ele>360.369507</ele>
        <time>2017-09-17T09:05:26Z</time>
      </trkpt>
      <trkpt lat="43.54079" lon="5.50464">
        <ele>363.647614</ele>
        <time>2017-09-17T09:05:42Z</time>
      </trkpt>
      <trkpt lat="43.54077" lon="5.50528">
        <ele>365.457031</ele>
        <time>2017-09-17T09:05:57Z</time>
      </trkpt>
      <trkpt lat="43.54045" lon="5.50581">
        <ele>365.137817</ele>
        <time>2017-09-17T09:06:12Z</time>
      </trkpt>
      <trkpt lat="43.54017" lon="5.50653">
        <ele>365.143707</ele>
        <time>2017-09-17T09:06:27Z</time>
      </trkpt>
      <trkpt lat="43.54015" lon="5.5074">
        <ele>366.965027</ele>
        <time>2017-09-17T09:06:43Z</time>
      </trkpt>
      <trkpt lat="43.54053" lon="5.50787">
        <ele>366.984558</ele>
        <time>2017-09-17T09:06:58Z</time>
      </trkpt>
      <trkpt lat="43.54102" lon="5.50847">
        <ele>368.472473</ele>
        <time>2017-09-17T09:07:14Z</time>
      </trkpt>
      <trkpt lat="43.54143" lon="5.50915">
        <ele>370.309631</ele>
        <time>2017-09-17T09:07:29Z</time>
      </trkpt>
      <trkpt lat="43.54182" lon="5.50974">
        <ele>369.414673</ele>
        <time>2017-09-17T09:07:44Z</time>
      </trkpt>
      <trkpt lat="43.54229" lon="5.51056">
        <ele>369.872864</ele>
        <time>2017-09-17T09:08:00Z</time>
      </trkpt>
      <trkpt lat="43.54258" lon="5.51093">
        <ele>370.868896</ele>
        <time>2017-09-17T09:08:16Z</time>
      </trkpt>
      <trkpt lat="43.54282" lon="5.51156">
        <ele>371.740784</ele>
        <time>2017-09-17T09:08:31Z</time>
      </trkpt>
      <trkpt lat="43.54351" lon="5.51177">
        <ele>370.463501</ele>
        <time>2017-09-17T09:08:46Z</time>
      </trkpt>
      <trkpt lat="43.54383" lon="5.51157">
        <ele>372.029572</ele>
        <time>2017-09-17T09:09:02Z</time>
      </trkpt>
      <trkpt lat="43.54414" lon="5.51178">
        <ele>373.458496</ele>
        <time>2017-09-17T09:09:17Z</time>
      </trkpt>
      <trkpt lat="43.54457" lon="5.51253">
        <ele>372.978699</ele>
        <time>2017-09-17T09:09:33Z</time>
      </trkpt>
      <trkpt lat="43.54494" lon="5.5133">
        <ele>374.032623</ele>
        <time>2017-09-17T09:09:49Z</time>
      </trkpt>
      <trkpt lat="43.54516" lon="5.51402">
        <ele>374.291748</ele>
        <time>2017-09-17T09:10:04Z</time>
      </trkpt>
      <trkpt lat="43.54561" lon="5.51469">
        <ele>376.530334</ele>
        <time>2017-09-17T09:10:20Z</time>
      </trkpt>
      <trkpt lat="43.5459" lon="5.51512">
        <ele>378.385254</ele>
        <time>2017-09-17T09:10:36Z</time>
      </trkpt>
      <trkpt lat="43.54623" lon="5.51569">
        <ele>382.053192</ele>
        <time>2017-09-17T09:10:51Z</time>
      </trkpt>
      <trkpt lat="43.54648" lon="5.51643">
        <ele>382.357208</ele>
        <time>2017-09-17T09:11:07Z</time>
      </trkpt>
      <trkpt lat="43.54635" lon="5.51739">
        <ele>385.070251</ele>
        <time>2017-09-17T09:11:22Z</time>
      </trkpt>
      <trkpt lat="43.54629" lon="5.51847">
        <ele>388.15329</ele>
        <time>2017-09-17T09:11:38Z</time>
      </trkpt>
      <trkpt lat="43.54682" lon="5.51933">
        <ele>388.674408</ele>
        <time>2017-09-17T09:11:54Z</time>
      </trkpt>
      <trkpt lat="43.54735" lon="5.52015">
        <ele>388.358276</ele>
        <time>2017-09-17T09:12:09Z</time>
      </trkpt>
      <trkpt lat="43.5478" lon="5.52093">
        <ele>393.555786</ele>
        <time>2017-09-17T09:12:24Z</time>
      </trkpt>
      <trkpt lat="43.54805" lon="5.52191">
        <ele>395.588257</ele>
        <time>2017-09-17T09:12:40Z</time>
      </trkpt>
      <trkpt lat="43.54826" lon="5.5232">
        <ele>393.235718</ele>
        <time>2017-09-17T09:12:56Z</time>
      </trkpt>
      <trkpt lat="43.54848" lon="5.52414">
        <ele>391.038544</ele>
        <time>2017-09-17T09:13:11Z</time>
      </trkpt>
      <trkpt lat="43.54899" lon="5.52377">
        <ele>391.846802</ele>
        <time>2017-09-17T09:13:27Z</time>
      </trkpt>
      <trkpt lat="43.54915" lon="5.52333">
        <ele>393.018829</ele>
        <time>2017-09-17T09:13:42Z</time>
      </trkpt>
      <trkpt lat="43.54948" lon="5.52326">
        <ele>396.453674</ele>
        <time>2017-09-17T09:13:57Z</time>
      </trkpt>
      <trkpt lat="43.54972" lon="5.52364">
        <ele>398.016663</ele>
        <time>2017-09-17T09:14:13Z</time>
      </trkpt>
      <trkpt lat="43.55003" lon="5.52367">
        <ele>401.198914</ele>
        <time>2017-09-17T09:14:28Z</time>
      </trkpt>
      <trkpt lat="43.55045" lon="5.52351">
        <ele>404.884644</ele>
        <time>2017-09-17T09:14:44Z</time>
      </trkpt>
      <trkpt lat="43.55085" lon="5.52376">
        <ele>407.15329</ele>
        <time>2017-09-17T09:15:00Z</time>
      </trkpt>
      <trkpt lat="43.55111" lon="5.5241">
        <ele>409.221313</ele>
        <time>2017-09-17T09:15:16Z</time>
      </trkpt>
      <trkpt lat="43.55126" lon="5.52426">
        <ele>409.929565</ele>
        <time>2017-09-17T09:15:31Z</time>
      </trkpt>
      <trkpt lat="43.55131" lon="5.52388">
        <ele>412.586029</ele>
        <time>2017-09-17T09:15:47Z</time>
      </trkpt>
      <trkpt lat="43.55136" lon="5.52335">
        <ele>414.678955</ele>
        <time>2017-09-17T09:16:02Z</time>
      </trkpt>
      <trkpt lat="43.55122" lon="5.52269">
        <ele>414.882019</ele>
        <time>2017-09-17T09:16:17Z</time>
      </trkpt>
      <trkpt lat="43.5511" lon="5.52227">
        <ele>415.336121</ele>
        <time>2017-09-17T09:16:33Z</time>
      </trkpt>
      <trkpt lat="43.55098" lon="5.52181">
        <ele>415.509277</ele>
        <time>2017-09-17T09:16:49Z</time>
      </trkpt>
      <trkpt lat="43.55122" lon="5.52144">
        <ele>417.35968</ele>
        <time>2017-09-17T09:17:04Z</time>
      </trkpt>
      <trkpt lat="43.55142" lon="5.5211">
        <ele>419.484528</ele>
        <time>2017-09-17T09:17:20Z</time>
      </trkpt>
      <trkpt lat="43.55176" lon="5.52102">
        <ele>421.989319</ele>
        <time>2017-09-17T09:17:35Z</time>
      </trkpt>
      <trkpt lat="43.55212" lon="5.521">
        <ele>424.873138</ele>
        <time>2017-09-17T09:17:50Z</time>
      </trkpt>
      <trkpt lat="43.55245" lon="5.52077">
        <ele>428.867981</ele>
        <time>2017-09-17T09:18:06Z</time>
      </trkpt>
      <trkpt lat="43.55271" lon="5.52063">
        <ele>431.566803</ele>
        <time>2017-09-17T09:18:22Z</time>
      </trkpt>
      <trkpt lat="43.55293" lon="5.52055">
        <ele>433.839111</ele>
        <time>2017-09-17T09:18:37Z</time>
      </trkpt>
      <trkpt lat="43.55295" lon="5.52026">
        <ele>435.710724</ele>
        <time>2017-09-17T09:18:52Z</time>
      </trkpt>
      <trkpt lat="43.55284" lon="5.51992">
        <ele>436.500366</ele>
        <time>2017-09-17T09:19:08Z</time>
      </trkpt>
      <trkpt lat="43.55273" lon="5.51961">
        <ele>436.101196</ele>
        <time>2017-09-17T09:19:23Z</time>
      </trkpt>
      <trkpt lat="43.55285" lon="5.51948">
        <ele>437.608154</ele>
        <time>2017-09-17T09:19:39Z</time>
      </trkpt>
      <trkpt lat="43.55306" lon="5.51963">
        <ele>439.224243</ele>
        <time>2017-09-17T09:19:54Z</time>
      </trkpt>
      <trkpt lat="43.55323" lon="5.51986">
        <ele>440.371338</ele>
        <time>2017-09-17T09:20:10Z</time>
      </trkpt>
      <trkpt lat="43.55351" lon="5.51988">
        <ele>442.105286</ele>
        <time>2017-09-17T09:20:25Z</time>
      </trkpt>
      <trkpt lat="43.55371" lon="5.51991">
        <ele>443.001007</ele>
        <time>2017-09-17T09:20:40Z</time>
      </trkpt>
      <trkpt lat="43.55384" lon="5.51997">
        <ele>443.50705</ele>
        <time>2017-09-17T09:22:57Z</time>
      </trkpt>
      <trkpt lat="43.55396" lon="5.52027">
        <ele>443.514313</ele>
        <time>2017-09-17T09:23:12Z</time>
      </trkpt>
      <trkpt lat="43.55411" lon="5.52057">
        <ele>444.479645</ele>
        <time>2017-09-17T09:23:28Z</time>
      </trkpt>
      <trkpt lat="43.55434" lon="5.52085">
        <ele>445.820007</ele>
        <time>2017-09-17T09:23:44Z</time>
      </trkpt>
      <trkpt lat="43.55463" lon="5.52121">
        <ele>447.445557</ele>
        <time>2017-09-17T09:23:59Z</time>
      </trkpt>
      <trkpt lat="43.55491" lon="5.52176">
        <ele>449.677917</ele>
        <time>2017-09-17T09:24:15Z</time>
      </trkpt>
      <trkpt lat="43.55506" lon="5.52231">
        <ele>451.879425</ele>
        <time>2017-09-17T09:24:30Z</time>
      </trkpt>
      <trkpt lat="43.55527" lon="5.52289">
        <ele>455.510376</ele>
        <time>2017-09-17T09:24:45Z</time>
      </trkpt>
      <trkpt lat="43.55546" lon="5.52363">
        <ele>459.04538</ele>
        <time>2017-09-17T09:25:01Z</time>
      </trkpt>
      <trkpt lat="43.55573" lon="5.52425">
        <ele>462.56543</ele>
        <time>2017-09-17T09:25:17Z</time>
      </trkpt>
      <trkpt lat="43.55582" lon="5.52492">
        <ele>464.679596</ele>
        <time>2017-09-17T09:25:32Z</time>
      </trkpt>
      <trkpt lat="43.55607" lon="5.52554">
        <ele>465.28241</ele>
        <time>2017-09-17T09:25:47Z</time>
      </trkpt>
      <trkpt lat="43.55637" lon="5.52655">
        <ele>462.82074</ele>
        <time>2017-09-17T09:26:03Z</time>
      </trkpt>
      <trkpt lat="43.55666" lon="5.52781">
        <ele>460.380127</ele>
        <time>2017-09-17T09:26:18Z</time>
      </trkpt>
      <trkpt lat="43.55692" lon="5.52918">
        <ele>459.828369</ele>
        <time>2017-09-17T09:26:34Z</time>
      </trkpt>
      <trkpt lat="43.55709" lon="5.5303">
        <ele>460.124207</ele>
        <time>2017-09-17T09:26:49Z</time>
      </trkpt>
      <trkpt lat="43.55735" lon="5.53164">
        <ele>456.779205</ele>
        <time>2017-09-17T09:27:05Z</time>
      </trkpt>
      <trkpt lat="43.55746" lon="5.53293">
        <ele>456.642883</ele>
        <time>2017-09-17T09:27:20Z</time>
      </trkpt>
      <trkpt lat="43.55777" lon="5.53398">
        <ele>460.40802</ele>
        <time>2017-09-17T09:27:35Z</time>
      </trkpt>
      <trkpt lat="43.55808" lon="5.53496">
        <ele>461.668488</ele>
        <time>2017-09-17T09:27:50Z</time>
      </trkpt>
      <trkpt lat="43.55829" lon="5.53605">
        <ele>462.139832</ele>
        <time>2017-09-17T09:28:06Z</time>
      </trkpt>
      <trkpt lat="43.55848" lon="5.53701">
        <ele>466.77597</ele>
        <time>2017-09-17T09:28:21Z</time>
      </trkpt>
      <trkpt lat="43.55866" lon="5.53788">
        <ele>471.028564</ele>
        <time>2017-09-17T09:28:37Z</time>
      </trkpt>
      <trkpt lat="43.55872" lon="5.53855">
        <ele>473.28302</ele>
        <time>2017-09-17T09:28:52Z</time>
      </trkpt>
      <trkpt lat="43.55895" lon="5.53924">
        <ele>474.501038</ele>
        <time>2017-09-17T09:29:08Z</time>
      </trkpt>
      <trkpt lat="43.55917" lon="5.53972">
        <ele>473.014954</ele>
        <time>2017-09-17T09:29:23Z</time>
      </trkpt>
      <trkpt lat="43.55944" lon="5.54026">
        <ele>471.221741</ele>
        <time>2017-09-17T09:29:38Z</time>
      </trkpt>
      <trkpt lat="43.55977" lon="5.54073">
        <ele>469.688965</ele>
        <time>2017-09-17T09:29:54Z</time>
      </trkpt>
      <trkpt lat="43.55992" lon="5.54096">
        <ele>469.750519</ele>
        <time>2017-09-17T09:30:18Z</time>
      </trkpt>
      <trkpt lat="43.56002" lon="5.54113">
        <ele>470.439392</ele>
        <time>2017-09-17T09:30:51Z</time>
      </trkpt>
      <trkpt lat="43.56034" lon="5.54192">
        <ele>471.689148</ele>
        <time>2017-09-17T09:31:06Z</time>
      </trkpt>
      <trkpt lat="43.56074" lon="5.54274">
        <ele>470.722382</ele>
        <time>2017-09-17T09:31:22Z</time>
      </trkpt>
      <trkpt lat="43.56126" lon="5.54338">
        <ele>469.611145</ele>
        <time>2017-09-17T09:31:37Z</time>
      </trkpt>
      <trkpt lat="43.56179" lon="5.54411">
        <ele>471.587921</ele>
        <time>2017-09-17T09:31:53Z</time>
      </trkpt>
      <trkpt lat="43.56227" lon="5.54457">
        <ele>472.793335</ele>
        <time>2017-09-17T09:32:09Z</time>
      </trkpt>
      <trkpt lat="43.56275" lon="5.54477">
        <ele>474.78894</ele>
        <time>2017-09-17T09:32:24Z</time>
      </trkpt>
      <trkpt lat="43.56315" lon="5.54459">
        <ele>476.726746</ele>
        <time>2017-09-17T09:32:39Z</time>
      </trkpt>
      <trkpt lat="43.56356" lon="5.54458">
        <ele>478.869263</ele>
        <time>2017-09-17T09:32:55Z</time>
      </trkpt>
      <trkpt lat="43.56384" lon="5.54466">
        <ele>480.541443</ele>
        <time>2017-09-17T09:33:10Z</time>
      </trkpt>
      <trkpt lat="43.5642" lon="5.5447">
        <ele>482.5495</ele>
        <time>2017-09-17T09:33:26Z</time>
      </trkpt>
      <trkpt lat="43.56455" lon="5.54466">
        <ele>484.76001</ele>
        <time>2017-09-17T09:33:41Z</time>
      </trkpt>
      <trkpt lat="43.56491" lon="5.54465">
        <ele>487.046021</ele>
        <time>2017-09-17T09:33:56Z</time>
      </trkpt>
      <trkpt lat="43.56528" lon="5.54468">
        <ele>486.673828</ele>
        <time>2017-09-17T09:34:11Z</time>
      </trkpt>
      <trkpt lat="43.56566" lon="5.54476">
        <ele>485.212036</ele>
        <time>2017-09-17T09:34:26Z</time>
      </trkpt>
      <trkpt lat="43.56626" lon="5.54479">
        <ele>487.805756</ele>
        <time>2017-09-17T09:34:42Z</time>
      </trkpt>
      <trkpt lat="43.5668" lon="5.54466">
        <ele>491.988861</ele>
        <time>2017-09-17T09:34:57Z</time>
      </trkpt>
      <trkpt lat="43.56734" lon="5.54447">
        <ele>496.324615</ele>
        <time>2017-09-17T09:35:13Z</time>
      </trkpt>
      <trkpt lat="43.56766" lon="5.54421">
        <ele>498.962708</ele>
        <time>2017-09-17T09:35:29Z</time>
      </trkpt>
      <trkpt lat="43.56794" lon="5.54392">
        <ele>500.333405</ele>
        <time>2017-09-17T09:35:44Z</time>
      </trkpt>
      <trkpt lat="43.56819" lon="5.54374">
        <ele>501.947968</ele>
        <time>2017-09-17T09:35:59Z</time>
      </trkpt>
      <trkpt lat="43.56845" lon="5.54364">
        <ele>503.729675</ele>
        <time>2017-09-17T09:36:15Z</time>
      </trkpt>
      <trkpt lat="43.56878" lon="5.54355">
        <ele>505.84491</ele>
        <time>2017-09-17T09:36:31Z</time>
      </trkpt>
      <trkpt lat="43.56917" lon="5.54355">
        <ele>508.252777</ele>
        <time>2017-09-17T09:36:47Z</time>
      </trkpt>
      <trkpt lat="43.56954" lon="5.54341">
        <ele>507.883301</ele>
        <time>2017-09-17T09:37:02Z</time>
      </trkpt>
      <trkpt lat="43.5699" lon="5.54324">
        <ele>507.866516</ele>
        <time>2017-09-17T09:37:18Z</time>
      </trkpt>
      <trkpt lat="43.57015" lon="5.54293">
        <ele>506.458984</ele>
        <time>2017-09-17T09:37:33Z</time>
      </trkpt>
      <trkpt lat="43.57037" lon="5.54242">
        <ele>505.742737</ele>
        <time>2017-09-17T09:37:49Z</time>
      </trkpt>
      <trkpt lat="43.57056" lon="5.54176">
        <ele>506.810669</ele>
        <time>2017-09-17T09:38:05Z</time>
      </trkpt>
      <trkpt lat="43.57067" lon="5.54081">
        <ele>503.238831</ele>
        <time>2017-09-17T09:38:21Z</time>
      </trkpt>
      <trkpt lat="43.57078" lon="5.53971">
        <ele>498.529297</ele>
        <time>2017-09-17T09:38:36Z</time>
      </trkpt>
      <trkpt lat="43.57124" lon="5.53865">
        <ele>495.328064</ele>
        <time>2017-09-17T09:38:52Z</time>
      </trkpt>
      <trkpt lat="43.57164" lon="5.53765">
        <ele>494.026733</ele>
        <time>2017-09-17T09:39:07Z</time>
      </trkpt>
      <trkpt lat="43.57201" lon="5.5368">
        <ele>491.102173</ele>
        <time>2017-09-17T09:39:22Z</time>
      </trkpt>
      <trkpt lat="43.57252" lon="5.536">
        <ele>488.959808</ele>
        <time>2017-09-17T09:39:38Z</time>
      </trkpt>
      <trkpt lat="43.57299" lon="5.5351">
        <ele>481.547607</ele>
        <time>2017-09-17T09:39:53Z</time>
      </trkpt>
      <trkpt lat="43.57357" lon="5.53399">
        <ele>478.72467</ele>
        <time>2017-09-17T09:40:09Z</time>
      </trkpt>
      <trkpt lat="43.57387" lon="5.5329">
        <ele>478.339355</ele>
        <time>2017-09-17T09:40:24Z</time>
      </trkpt>
      <trkpt lat="43.57381" lon="5.53148">
        <ele>477.424469</ele>
        <time>2017-09-17T09:40:40Z</time>
      </trkpt>
      <trkpt lat="43.57381" lon="5.52999">
        <ele>473.797546</ele>
        <time>2017-09-17T09:40:55Z</time>
      </trkpt>
      <trkpt lat="43.57379" lon="5.52829">
        <ele>462.269043</ele>
        <time>2017-09-17T09:41:11Z</time>
      </trkpt>
      <trkpt lat="43.57394" lon="5.5269">
        <ele>461.390686</ele>
        <time>2017-09-17T09:41:26Z</time>
      </trkpt>
      <trkpt lat="43.57405" lon="5.52566">
        <ele>459.853271</ele>
        <time>2017-09-17T09:41:41Z</time>
      </trkpt>
      <trkpt lat="43.57419" lon="5.5244">
        <ele>461.98053</ele>
        <time>2017-09-17T09:41:57Z</time>
      </trkpt>
      <trkpt lat="43.57439" lon="5.52349">
        <ele>460.302307</ele>
        <time>2017-09-17T09:42:12Z</time>
      </trkpt>
      <trkpt lat="43.57475" lon="5.5225">
        <ele>460.782349</ele>
        <time>2017-09-17T09:42:28Z</time>
      </trkpt>
      <trkpt lat="43.57475" lon="5.52138">
        <ele>458.340546</ele>
        <time>2017-09-17T09:42:44Z</time>
      </trkpt>
      <trkpt lat="43.57492" lon="5.52084">
        <ele>459.343781</ele>
        <time>2017-09-17T09:43:00Z</time>
      </trkpt>
      <trkpt lat="43.5748" lon="5.52065">
        <ele>458.090942</ele>
        <time>2017-09-17T09:43:15Z</time>
      </trkpt>
      <trkpt lat="43.57461" lon="5.52033">
        <ele>456.645874</ele>
        <time>2017-09-17T09:43:31Z</time>
      </trkpt>
      <trkpt lat="43.57437" lon="5.5198">
        <ele>455.20636</ele>
        <time>2017-09-17T09:43:46Z</time>
      </trkpt>
      <trkpt lat="43.57413" lon="5.51906">
        <ele>452.117096</ele>
        <time>2017-09-17T09:44:02Z</time>
      </trkpt>
      <trkpt lat="43.57402" lon="5.51851">
        <ele>448.70755</ele>
        <time>2017-09-17T09:44:17Z</time>
      </trkpt>
      <trkpt lat="43.57381" lon="5.51731">
        <ele>440.701233</ele>
        <time>2017-09-17T09:44:33Z</time>
      </trkpt>
      <trkpt lat="43.57398" lon="5.51675">
        <ele>435.732178</ele>
        <time>2017-09-17T09:44:49Z</time>
      </trkpt>
      <trkpt lat="43.57401" lon="5.51631">
        <ele>432.988525</ele>
        <time>2017-09-17T09:45:04Z</time>
      </trkpt>
      <trkpt lat="43.57416" lon="5.51596">
        <ele>432.403351</ele>
        <time>2017-09-17T09:45:19Z</time>
      </trkpt>
      <trkpt lat="43.57439" lon="5.51539">
        <ele>427.266388</ele>
        <time>2017-09-17T09:45:34Z</time>
      </trkpt>
      <trkpt lat="43.57453" lon="5.51476">
        <ele>423.324951</ele>
        <time>2017-09-17T09:45:50Z</time>
      </trkpt>
      <trkpt lat="43.57468" lon="5.51442">
        <ele>422.715057</ele>
        <time>2017-09-17T09:46:05Z</time>
      </trkpt>
      <trkpt lat="43.57474" lon="5.51397">
        <ele>420.490692</ele>
        <time>2017-09-17T09:46:21Z</time>
      </trkpt>
      <trkpt lat="43.57521" lon="5.51338">
        <ele>412.137543</ele>
        <time>2017-09-17T09:46:53Z</time>
      </trkpt>
      <trkpt lat="43.57543" lon="5.51297">
        <ele>403.539001</ele>
        <time>2017-09-17T09:47:09Z</time>
      </trkpt>
      <trkpt lat="43.57563" lon="5.51269">
        <ele>399.855927</ele>
        <time>2017-09-17T09:47:29Z</time>
      </trkpt>
      <trkpt lat="43.57576" lon="5.51233">
        <ele>396.893555</ele>
        <time>2017-09-17T09:47:47Z</time>
      </trkpt>
      <trkpt lat="43.5761" lon="5.51188">
        <ele>391.666229</ele>
        <time>2017-09-17T09:48:03Z</time>
      </trkpt>
      <trkpt lat="43.57624" lon="5.51142">
        <ele>386.618439</ele>
        <time>2017-09-17T09:48:18Z</time>
      </trkpt>
      <trkpt lat="43.57639" lon="5.51086">
        <ele>380.907135</ele>
        <time>2017-09-17T09:48:34Z</time>
      </trkpt>
      <trkpt lat="43.57672" lon="5.51024">
        <ele>374.977264</ele>
        <time>2017-09-17T09:48:50Z</time>
      </trkpt>
      <trkpt lat="43.57686" lon="5.50962">
        <ele>369.375122</ele>
        <time>2017-09-17T09:49:05Z</time>
      </trkpt>
      <trkpt lat="43.5771" lon="5.50926">
        <ele>367.818665</ele>
        <time>2017-09-17T09:49:21Z</time>
      </trkpt>
      <trkpt lat="43.57731" lon="5.50854">
        <ele>364.477722</ele>
        <time>2017-09-17T09:49:36Z</time>
      </trkpt>
      <trkpt lat="43.57722" lon="5.5075">
        <ele>362.641541</ele>
        <time>2017-09-17T09:49:52Z</time>
      </trkpt>
      <trkpt lat="43.57728" lon="5.50679">
        <ele>366.271576</ele>
        <time>2017-09-17T09:50:07Z</time>
      </trkpt>
      <trkpt lat="43.57729" lon="5.50632">
        <ele>367.014862</ele>
        <time>2017-09-17T09:50:22Z</time>
      </trkpt>
      <trkpt lat="43.57698" lon="5.50591">
        <ele>367.267273</ele>
        <time>2017-09-17T09:50:38Z</time>
      </trkpt>
      <trkpt lat="43.57655" lon="5.50557">
        <ele>366.134277</ele>
        <time>2017-09-17T09:50:54Z</time>
      </trkpt>
      <trkpt lat="43.57607" lon="5.50524">
        <ele>365.777313</ele>
        <time>2017-09-17T09:51:10Z</time>
      </trkpt>
      <trkpt lat="43.57549" lon="5.50481">
        <ele>366.163025</ele>
        <time>2017-09-17T09:51:25Z</time>
      </trkpt>
      <trkpt lat="43.57494" lon="5.50404">
        <ele>364.595734</ele>
        <time>2017-09-17T09:51:41Z</time>
      </trkpt>
      <trkpt lat="43.57537" lon="5.50295">
        <ele>360.196045</ele>
        <time>2017-09-17T09:51:57Z</time>
      </trkpt>
      <trkpt lat="43.5765" lon="5.50195">
        <ele>354.405212</ele>
        <time>2017-09-17T09:52:12Z</time>
      </trkpt>
      <trkpt lat="43.57758" lon="5.50091">
        <ele>353.178711</ele>
        <time>2017-09-17T09:52:28Z</time>
      </trkpt>
      <trkpt lat="43.57846" lon="5.49998">
        <ele>351.667053</ele>
        <time>2017-09-17T09:52:43Z</time>
      </trkpt>
      <trkpt lat="43.57872" lon="5.49861">
        <ele>348.774567</ele>
        <time>2017-09-17T09:52:58Z</time>
      </trkpt>
      <trkpt lat="43.57943" lon="5.49758">
        <ele>348.208527</ele>
        <time>2017-09-17T09:53:14Z</time>
      </trkpt>
      <trkpt lat="43.58014" lon="5.49845">
        <ele>346.406311</ele>
        <time>2017-09-17T09:53:30Z</time>
      </trkpt>
      <trkpt lat="43.58125" lon="5.49933">
        <ele>345.527252</ele>
        <time>2017-09-17T09:53:46Z</time>
      </trkpt>
      <trkpt lat="43.58204" lon="5.49968">
        <ele>341.932312</ele>
        <time>2017-09-17T09:54:02Z</time>
      </trkpt>
      <trkpt lat="43.58209" lon="5.49898">
        <ele>342.712585</ele>
        <time>2017-09-17T09:54:17Z</time>
      </trkpt>
      <trkpt lat="43.58239" lon="5.49827">
        <ele>342.335632</ele>
        <time>2017-09-17T09:54:33Z</time>
      </trkpt>
      <trkpt lat="43.58262" lon="5.4973">
        <ele>340.486572</ele>
        <time>2017-09-17T09:54:48Z</time>
      </trkpt>
      <trkpt lat="43.58271" lon="5.49624">
        <ele>339.35733</ele>
        <time>2017-09-17T09:55:04Z</time>
      </trkpt>
      <trkpt lat="43.58281" lon="5.4952">
        <ele>339.92511</ele>
        <time>2017-09-17T09:55:19Z</time>
      </trkpt>
      <trkpt lat="43.5829" lon="5.49418">
        <ele>341.533386</ele>
        <time>2017-09-17T09:55:35Z</time>
      </trkpt>
      <trkpt lat="43.58294" lon="5.49342">
        <ele>343.267944</ele>
        <time>2017-09-17T09:55:51Z</time>
      </trkpt>
      <trkpt lat="43.58316" lon="5.49318">
        <ele>342.675232</ele>
        <time>2017-09-17T09:56:06Z</time>
      </trkpt>
      <trkpt lat="43.58351" lon="5.49287">
        <ele>341.47995</ele>
        <time>2017-09-17T09:56:22Z</time>
      </trkpt>
      <trkpt lat="43.58403" lon="5.49242">
        <ele>341.666138</ele>
        <time>2017-09-17T09:56:38Z</time>
      </trkpt>
      <trkpt lat="43.58443" lon="5.49181">
        <ele>342.209137</ele>
        <time>2017-09-17T09:56:53Z</time>
      </trkpt>
      <trkpt lat="43.58505" lon="5.49104">
        <ele>342.154572</ele>
        <time>2017-09-17T09:57:09Z</time>
      </trkpt>
      <trkpt lat="43.58568" lon="5.49013">
        <ele>340.18219</ele>
        <time>2017-09-17T09:57:25Z</time>
      </trkpt>
      <trkpt lat="43.58636" lon="5.48925">
        <ele>338.763214</ele>
        <time>2017-09-17T09:57:41Z</time>
      </trkpt>
      <trkpt lat="43.58704" lon="5.4889">
        <ele>340.328247</ele>
        <time>2017-09-17T09:57:56Z</time>
      </trkpt>
      <trkpt lat="43.58789" lon="5.48832">
        <ele>342.87854</ele>
        <time>2017-09-17T09:58:12Z</time>
      </trkpt>
      <trkpt lat="43.58871" lon="5.48781">
        <ele>344.391449</ele>
        <time>2017-09-17T09:58:28Z</time>
      </trkpt>
      <trkpt lat="43.58946" lon="5.48761">
        <ele>348.108093</ele>
        <time>2017-09-17T09:58:43Z</time>
      </trkpt>
      <trkpt lat="43.59013" lon="5.48711">
        <ele>347.246857</ele>
        <time>2017-09-17T09:58:58Z</time>
      </trkpt>
      <trkpt lat="43.5909" lon="5.48634">
        <ele>344.453186</ele>
        <time>2017-09-17T09:59:14Z</time>
      </trkpt>
      <trkpt lat="43.59143" lon="5.48535">
        <ele>345.4375</ele>
        <time>2017-09-17T09:59:30Z</time>
      </trkpt>
      <trkpt lat="43.59205" lon="5.48471">
        <ele>345.269287</ele>
        <time>2017-09-17T09:59:45Z</time>
      </trkpt>
      <trkpt lat="43.59265" lon="5.48437">
        <ele>345.104492</ele>
        <time>2017-09-17T10:00:00Z</time>
      </trkpt>
      <trkpt lat="43.59316" lon="5.48383">
        <ele>344.358551</ele>
        <time>2017-09-17T10:00:15Z</time>
      </trkpt>
      <trkpt lat="43.5937" lon="5.48304">
        <ele>345.115906</ele>
        <time>2017-09-17T10:00:31Z</time>
      </trkpt>
      <trkpt lat="43.5941" lon="5.48245">
        <ele>346.883423</ele>
        <time>2017-09-17T10:00:46Z</time>
      </trkpt>
      <trkpt lat="43.59435" lon="5.48228">
        <ele>348.300262</ele>
        <time>2017-09-17T10:01:01Z</time>
      </trkpt>
      <trkpt lat="43.59447" lon="5.4824">
        <ele>348.617279</ele>
        <time>2017-09-17T10:01:29Z</time>
      </trkpt>
      <trkpt lat="43.59497" lon="5.48289">
        <ele>350.382568</ele>
        <time>2017-09-17T10:01:45Z</time>
      </trkpt>
      <trkpt lat="43.59544" lon="5.48288">
        <ele>354.218079</ele>
        <time>2017-09-17T10:02:01Z</time>
      </trkpt>
      <trkpt lat="43.59583" lon="5.48259">
        <ele>357.860718</ele>
        <time>2017-09-17T10:02:16Z</time>
      </trkpt>
      <trkpt lat="43.59617" lon="5.48229">
        <ele>359.890076</ele>
        <time>2017-09-17T10:02:31Z</time>
      </trkpt>
      <trkpt lat="43.59653" lon="5.48191">
        <ele>362.103821</ele>
        <time>2017-09-17T10:02:47Z</time>
      </trkpt>
      <trkpt lat="43.59671" lon="5.48185">
        <ele>363.574158</ele>
        <time>2017-09-17T10:03:03Z</time>
      </trkpt>
      <trkpt lat="43.59662" lon="5.48168">
        <ele>362.568817</ele>
        <time>2017-09-17T10:04:07Z</time>
      </trkpt>
      <trkpt lat="43.59614" lon="5.48068">
        <ele>357.239014</ele>
        <time>2017-09-17T10:04:22Z</time>
      </trkpt>
      <trkpt lat="43.59612" lon="5.47935">
        <ele>357.045654</ele>
        <time>2017-09-17T10:04:38Z</time>
      </trkpt>
      <trkpt lat="43.59551" lon="5.47883">
        <ele>352.349396</ele>
        <time>2017-09-17T10:04:54Z</time>
      </trkpt>
      <trkpt lat="43.5944" lon="5.47871">
        <ele>346.273621</ele>
        <time>2017-09-17T10:05:10Z</time>
      </trkpt>
      <trkpt lat="43.5945" lon="5.47835">
        <ele>345.840393</ele>
        <time>2017-09-17T10:05:25Z</time>
      </trkpt>
    </trkseg>
  </trk>
</gpx>